createdAt,value
2023-03-21T00:03:32.602Z,22.9
2023-03-21T00:09:44.720Z,22.3
2023-03-21T00:16:11.272Z,22
2023-03-21T00:22:56.599Z,21.8
2023-03-21T00:29:30.369Z,22.8
2023-03-21T00:36:39.986Z,22.8
2023-03-21T00:43:04.933Z,22.1
2023-03-21T00:49:21.558Z,21.8
2023-03-21T00:55:30.725Z,22.9
2023-03-21T01:01:20.933Z,23.4
2023-03-21T01:07:11.533Z,22.7
2023-03-21T01:13:06.229Z,22.4
2023-03-21T01:19:48.600Z,22.3
2023-03-21T01:25:21.411Z,23.7
2023-03-21T01:31:31.318Z,23.2
2023-03-21T01:37:32.728Z,22.6
2023-03-21T01:43:06.468Z,22.3
2023-03-21T01:49:06.789Z,22.6
2023-03-21T01:55:05.120Z,23.5
2023-03-21T02:00:36.906Z,23
2023-03-21T02:06:33.150Z,22.5
2023-03-21T02:12:20.793Z,22.3
2023-03-21T02:18:10.634Z,22.7
2023-03-21T02:23:36.638Z,24.1
2023-03-21T02:29:51.937Z,23.1
2023-03-21T02:36:30.581Z,22.5
2023-03-21T02:42:51.528Z,22.1
2023-03-21T02:49:40.263Z,22.8
2023-03-21T02:56:11.077Z,23.8
2023-03-21T03:01:57.787Z,22.7
2023-03-21T03:07:57.640Z,22.3
2023-03-21T03:13:48.995Z,22.2
2023-03-21T03:20:16.106Z,23.1
2023-03-21T03:26:16.004Z,23.1
2023-03-21T03:32:15.316Z,22.6
2023-03-21T03:38:11.737Z,22.4
2023-03-21T03:44:23.439Z,22.1
2023-03-21T03:50:26.492Z,22.9
2023-03-21T03:56:36.589Z,23.5
2023-03-21T04:02:43.350Z,22.8
2023-03-21T04:09:00.105Z,22.4
2023-03-21T04:15:09.710Z,22.1
2023-03-21T04:20:54.453Z,23.3
2023-03-21T04:27:02.314Z,23.5
2023-03-21T04:33:21.571Z,22.5
2023-03-21T04:39:14.493Z,22.1
2023-03-21T04:45:06.257Z,21.8
2023-03-21T04:50:58.541Z,22.9
2023-03-21T04:56:51.440Z,23.3
2023-03-21T05:02:43.206Z,22.3
2023-03-21T05:08:36.914Z,21.8
2023-03-21T05:14:32.649Z,21.6
2023-03-21T05:20:23.653Z,21.9
2023-03-21T05:26:16.624Z,23.6
2023-03-21T05:32:09.737Z,22.9
2023-03-21T05:37:46.872Z,22.3
2023-03-21T05:43:40.690Z,21.7
2023-03-21T05:49:19.554Z,21.6
2023-03-21T05:55:10.705Z,22.5
2023-03-21T06:01:03.812Z,22.5
2023-03-21T06:06:56.801Z,21.9
2023-03-21T06:12:48.206Z,21.7
2023-03-21T06:18:41.839Z,21.3
2023-03-21T06:24:19.061Z,22.1
2023-03-21T06:29:39.784Z,22.4
2023-03-21T06:35:33.003Z,21.8
2023-03-21T06:41:26.099Z,21.5
2023-03-21T06:47:18.449Z,21.3
2023-03-21T06:52:57.041Z,22.3
2023-03-21T06:58:34.459Z,22.9
2023-03-21T07:04:13.523Z,22.3
2023-03-21T07:10:06.689Z,21.9
2023-03-21T07:15:44.297Z,21.8
2023-03-21T07:21:37.061Z,22.8
2023-03-21T07:27:36.013Z,23.2
2023-03-21T07:32:57.970Z,22.5
2023-03-21T07:38:49.880Z,22
2023-03-21T07:44:28.984Z,21.9
2023-03-21T07:50:24.797Z,22.7
2023-03-21T07:56:17.640Z,23.1
2023-03-21T08:02:10.313Z,22.3
2023-03-21T08:08:05.449Z,22.1
2023-03-21T08:14:00.915Z,21.8
2023-03-21T08:19:53.483Z,23
2023-03-21T08:25:46.152Z,23.1
2023-03-21T08:31:23.938Z,22.3
2023-03-21T08:37:20.334Z,22
2023-03-21T08:43:14.967Z,21.8
2023-03-21T08:48:52.222Z,23.1
2023-03-21T08:54:46.282Z,23.1
2023-03-21T09:00:40.122Z,22.2
2023-03-21T09:06:33.945Z,22.1
2023-03-21T09:12:47.896Z,21.8
2023-03-21T09:18:28.107Z,23.3
2023-03-21T09:24:21.792Z,22.8
2023-03-21T09:29:59.720Z,22.3
2023-03-21T09:35:52.584Z,22.1
2023-03-21T09:41:44.975Z,22.1
2023-03-21T09:47:38.405Z,23.4
2023-03-21T09:53:49.980Z,22.8
2023-03-21T09:59:43.018Z,22.2
2023-03-21T10:05:37.318Z,22
2023-03-21T10:11:30.991Z,22.1
2023-03-21T10:17:26.872Z,24
2023-03-21T10:23:46.460Z,23
2023-03-21T10:29:56.343Z,22.4
2023-03-21T10:35:50.761Z,22.2
2023-03-21T10:41:29.314Z,22.9
2023-03-21T10:47:26.659Z,23.9
2023-03-21T10:53:43.048Z,23
2023-03-21T10:59:20.658Z,22.4
2023-03-21T11:04:59.387Z,22.3
2023-03-21T11:11:01.416Z,22.8
2023-03-21T11:16:57.132Z,24.1
2023-03-21T11:22:36.005Z,22.9
2023-03-21T11:28:28.898Z,22.4
2023-03-21T11:34:21.604Z,22.1
2023-03-21T11:40:15.287Z,23
2023-03-21T11:46:09.058Z,23.5
2023-03-21T11:51:51.634Z,22.3
2023-03-21T11:57:45.228Z,22
2023-03-21T12:04:03.763Z,21.9
2023-03-21T12:09:57.387Z,23.3
2023-03-21T12:15:58.677Z,23.4
2023-03-21T12:21:51.853Z,22.3
2023-03-21T12:27:47.338Z,22
2023-03-21T12:33:53.203Z,21.6
2023-03-21T12:39:47.955Z,21.4
2023-03-21T12:46:02.617Z,21.2
2023-03-21T12:57:04.177Z,21.1
2023-03-21T13:02:54.153Z,21.1
2023-03-21T13:09:00.760Z,21
2023-03-21T13:14:43.315Z,20.9
2023-03-21T13:20:44.258Z,20.8
2023-03-21T13:26:38.252Z,20.6
2023-03-21T13:32:25.419Z,20.5
2023-03-21T13:38:18.559Z,20.5
2023-03-21T13:44:16.930Z,20.4
2023-03-21T13:50:30.945Z,20.3
2023-03-21T13:56:24.488Z,20.2
2023-03-21T14:02:19.324Z,20.2
2023-03-21T14:08:37.338Z,20.1
2023-03-21T14:14:41.422Z,20
2023-03-21T14:21:09.157Z,20.2
2023-03-21T14:27:10.067Z,20.2
2023-03-21T14:33:21.411Z,20.2
2023-03-21T14:38:54.393Z,20.1
2023-03-21T14:44:54.747Z,20.1
2023-03-21T14:50:48.813Z,20.1
2023-03-21T14:56:26.901Z,20.1
2023-03-21T15:02:04.429Z,20
2023-03-21T15:07:58.701Z,19.9
2023-03-21T15:13:49.992Z,20
2023-03-21T15:19:43.203Z,19.9
2023-03-21T15:25:37.390Z,20
2023-03-21T15:31:31.752Z,19.9
2023-03-21T15:36:53.250Z,19.9
2023-03-21T15:42:31.616Z,19.9
2023-03-21T15:48:12.474Z,19.9
2023-03-21T15:53:51.627Z,19.9
2023-03-21T15:58:59.596Z,19.9
2023-03-21T16:04:53.934Z,19.9
2023-03-21T16:10:46.066Z,19.9
2023-03-21T16:16:39.093Z,19.8
2023-03-21T16:22:32.189Z,19.7
2023-03-21T16:28:24.150Z,19.6
2023-03-21T16:34:17.874Z,19.5
2023-03-21T16:39:55.664Z,19.5
2023-03-21T16:45:33.065Z,19.6
2023-03-21T16:51:11.140Z,19.6
2023-03-21T16:56:48.707Z,19.1
2023-03-21T17:02:42.918Z,21.4
2023-03-21T17:08:37.532Z,24.6
2023-03-21T17:14:15.249Z,24.8
2023-03-21T17:20:08.682Z,25
2023-03-21T17:25:48.395Z,25.4
2023-03-21T17:31:41.964Z,26
2023-03-21T17:37:34.512Z,25.9
2023-03-21T17:43:26.928Z,26.1
2023-03-21T17:49:05.747Z,25.8
2023-03-21T17:54:14.745Z,25.9
2023-03-21T18:00:07.659Z,26.2
2023-03-21T18:06:04.094Z,25.9
2023-03-21T18:12:40.393Z,26.5
2023-03-21T18:18:26.747Z,27.9
2023-03-21T18:24:47.238Z,29.3
2023-03-21T18:33:10.314Z,30.4
2023-03-21T18:39:10.700Z,31.8
2023-03-21T18:46:17.653Z,31.4
2023-03-21T18:53:00.742Z,31.1
2023-03-21T19:00:09.994Z,32.2
2023-03-21T19:06:34.501Z,31.8
2023-03-21T19:13:01.587Z,31.7
2023-03-21T19:20:32.763Z,31.5
2023-03-21T19:27:02.778Z,31.2
2023-03-21T19:33:19.186Z,31.6
2023-03-21T19:39:36.840Z,30.6
2023-03-21T19:45:51.871Z,29.7
2023-03-21T19:53:09.985Z,28.8
2023-03-21T19:59:15.877Z,29.3
2023-03-21T20:05:36.162Z,29.1
2023-03-21T20:12:19.986Z,28.7
2023-03-21T20:18:29.951Z,27.8
2023-03-21T20:25:02.295Z,26.9
2023-03-21T20:32:19.734Z,24.4
2023-03-21T20:39:27.404Z,23.9
2023-03-21T20:46:43.952Z,23.9
2023-03-21T20:53:57.795Z,24
2023-03-21T21:00:39.279Z,24.1
2023-03-21T21:07:09.132Z,24
2023-03-21T21:13:37.364Z,23.9
2023-03-21T21:20:00.207Z,23.8
2023-03-21T21:26:02.862Z,23.9
2023-03-21T21:31:56.470Z,23.6
2023-03-21T21:37:49.378Z,23.4
2023-03-21T21:43:41.404Z,23.3
2023-03-21T21:49:19.685Z,23.3
2023-03-21T21:54:57.305Z,23.1
2023-03-21T22:00:50.258Z,22.8
2023-03-21T22:06:27.314Z,22.4
2023-03-21T22:12:08.020Z,22
2023-03-21T22:17:45.979Z,21.8
2023-03-21T22:23:26.702Z,21.5
2023-03-21T22:29:21.060Z,21.3
2023-03-21T22:35:06.212Z,20.9
2023-03-21T22:40:59.138Z,20.8
2023-03-21T22:46:36.126Z,22.6
2023-03-21T22:52:28.071Z,22.2
2023-03-21T22:58:20.823Z,21.4
2023-03-21T23:03:59.030Z,21
2023-03-21T23:09:36.781Z,21.1
2023-03-21T23:15:30.181Z,21.4
2023-03-21T23:21:07.004Z,21.9
2023-03-21T23:27:03.386Z,21.9
2023-03-21T23:32:40.459Z,22.1
2023-03-21T23:38:34.237Z,23.7
2023-03-21T23:44:25.524Z,23.2
2023-03-21T23:50:18.519Z,22.7
2023-03-21T23:56:12.540Z,22.4
